sensor_id;sensor_type;location;lat;lon;timestamp;P1;durP1;ratioP1;P2;durP2;ratioP2
70026;SDS011;57506;50.092;15.804;2023-02-15T00:01:05;37.20;;;16.70;;
70026;SDS011;57506;50.092;15.804;2023-02-15T00:03:32;37.40;;;16.55;;
70026;SDS011;57506;50.092;15.804;2023-02-15T00:05:58;40.87;;;17.90;;
70026;SDS011;57506;50.092;15.804;2023-02-15T00:08:23;41.40;;;17.67;;
70026;SDS011;57506;50.092;15.804;2023-02-15T00:10:49;49.22;;;18.73;;
70026;SDS011;57506;50.092;15.804;2023-02-15T00:13:14;40.27;;;17.43;;
70026;SDS011;57506;50.092;15.804;2023-02-15T00:15:40;38.97;;;18.35;;
70026;SDS011;57506;50.092;15.804;2023-02-15T00:18:05;33.93;;;16.30;;
70026;SDS011;57506;50.092;15.804;2023-02-15T00:20:31;39.67;;;17.43;;
70026;SDS011;57506;50.092;15.804;2023-02-15T00:22:56;36.93;;;16.67;;
70026;SDS011;57506;50.092;15.804;2023-02-15T00:25:22;36.28;;;17.40;;
70026;SDS011;57506;50.092;15.804;2023-02-15T00:27:47;37.70;;;16.87;;
70026;SDS011;57506;50.092;15.804;2023-02-15T00:30:13;32.13;;;15.80;;
70026;SDS011;57506;50.092;15.804;2023-02-15T00:32:38;35.67;;;15.77;;
70026;SDS011;57506;50.092;15.804;2023-02-15T00:35:04;34.17;;;16.00;;
70026;SDS011;57506;50.092;15.804;2023-02-15T00:37:30;35.20;;;16.92;;
70026;SDS011;57506;50.092;15.804;2023-02-15T00:39:55;39.17;;;17.90;;
70026;SDS011;57506;50.092;15.804;2023-02-15T00:42:21;35.70;;;16.93;;
70026;SDS011;57506;50.092;15.804;2023-02-15T00:44:46;37.80;;;17.30;;
70026;SDS011;57506;50.092;15.804;2023-02-15T00:47:11;37.33;;;17.65;;
70026;SDS011;57506;50.092;15.804;2023-02-15T00:49:37;40.30;;;17.00;;
70026;SDS011;57506;50.092;15.804;2023-02-15T00:52:02;46.80;;;17.77;;
70026;SDS011;57506;50.092;15.804;2023-02-15T00:54:28;50.30;;;19.03;;
70026;SDS011;57506;50.092;15.804;2023-02-15T00:56:53;43.43;;;17.17;;
70026;SDS011;57506;50.092;15.804;2023-02-15T00:59:19;45.23;;;17.03;;
70026;SDS011;57506;50.092;15.804;2023-02-15T01:01:44;37.77;;;17.40;;
70026;SDS011;57506;50.092;15.804;2023-02-15T01:04:10;39.20;;;17.45;;
70026;SDS011;57506;50.092;15.804;2023-02-15T01:06:35;47.13;;;18.63;;
70026;SDS011;57506;50.092;15.804;2023-02-15T01:09:01;46.67;;;18.20;;
70026;SDS011;57506;50.092;15.804;2023-02-15T01:11:27;47.67;;;18.15;;
70026;SDS011;57506;50.092;15.804;2023-02-15T01:13:54;38.23;;;16.73;;
70026;SDS011;57506;50.092;15.804;2023-02-15T01:16:22;34.80;;;16.30;;
70026;SDS011;57506;50.092;15.804;2023-02-15T01:18:49;39.88;;;17.48;;
70026;SDS011;57506;50.092;15.804;2023-02-15T01:21:16;38.80;;;17.10;;
70026;SDS011;57506;50.092;15.804;2023-02-15T01:23:43;37.08;;;16.50;;
70026;SDS011;57506;50.092;15.804;2023-02-15T01:26:09;38.43;;;16.47;;
70026;SDS011;57506;50.092;15.804;2023-02-15T01:28:35;35.13;;;16.10;;
70026;SDS011;57506;50.092;15.804;2023-02-15T01:31:04;34.10;;;16.52;;
70026;SDS011;57506;50.092;15.804;2023-02-15T01:33:31;35.78;;;15.88;;
70026;SDS011;57506;50.092;15.804;2023-02-15T01:35:57;31.53;;;15.00;;
70026;SDS011;57506;50.092;15.804;2023-02-15T01:38:23;32.25;;;15.63;;
70026;SDS011;57506;50.092;15.804;2023-02-15T01:40:52;37.80;;;15.40;;
70026;SDS011;57506;50.092;15.804;2023-02-15T01:43:18;33.33;;;15.10;;
70026;SDS011;57506;50.092;15.804;2023-02-15T01:45:43;30.70;;;14.97;;
70026;SDS011;57506;50.092;15.804;2023-02-15T01:48:21;34.42;;;15.43;;
70026;SDS011;57506;50.092;15.804;2023-02-15T01:51:00;30.15;;;14.95;;
70026;SDS011;57506;50.092;15.804;2023-02-15T01:53:27;34.58;;;15.05;;
70026;SDS011;57506;50.092;15.804;2023-02-15T01:56:05;33.47;;;15.10;;
70026;SDS011;57506;50.092;15.804;2023-02-15T01:58:34;35.13;;;15.55;;
70026;SDS011;57506;50.092;15.804;2023-02-15T02:01:01;32.55;;;15.55;;
70026;SDS011;57506;50.092;15.804;2023-02-15T02:06:30;36.38;;;15.80;;
70026;SDS011;57506;50.092;15.804;2023-02-15T02:08:58;35.13;;;16.17;;
70026;SDS011;57506;50.092;15.804;2023-02-15T02:11:24;34.78;;;15.30;;
70026;SDS011;57506;50.092;15.804;2023-02-15T02:13:50;34.42;;;15.57;;
70026;SDS011;57506;50.092;15.804;2023-02-15T02:27:47;36.13;;;15.55;;
70026;SDS011;57506;50.092;15.804;2023-02-15T02:35:38;36.97;;;16.88;;
70026;SDS011;57506;50.092;15.804;2023-02-15T02:38:27;38.10;;;15.43;;
70026;SDS011;57506;50.092;15.804;2023-02-15T02:46:38;34.78;;;15.75;;
70026;SDS011;57506;50.092;15.804;2023-02-15T02:52:05;36.20;;;15.68;;
70026;SDS011;57506;50.092;15.804;2023-02-15T02:54:51;36.80;;;16.77;;
70026;SDS011;57506;50.092;15.804;2023-02-15T02:57:17;37.67;;;16.93;;
70026;SDS011;57506;50.092;15.804;2023-02-15T02:59:44;39.05;;;16.98;;
70026;SDS011;57506;50.092;15.804;2023-02-15T03:02:15;35.50;;;15.43;;
70026;SDS011;57506;50.092;15.804;2023-02-15T03:04:46;37.00;;;17.60;;
70026;SDS011;57506;50.092;15.804;2023-02-15T03:07:23;37.08;;;16.08;;
70026;SDS011;57506;50.092;15.804;2023-02-15T03:09:53;37.60;;;16.47;;
70026;SDS011;57506;50.092;15.804;2023-02-15T03:12:35;34.67;;;15.88;;
70026;SDS011;57506;50.092;15.804;2023-02-15T03:15:18;35.95;;;15.48;;
70026;SDS011;57506;50.092;15.804;2023-02-15T03:17:47;40.95;;;16.80;;
70026;SDS011;57506;50.092;15.804;2023-02-15T03:20:22;42.50;;;16.73;;
70026;SDS011;57506;50.092;15.804;2023-02-15T03:22:55;45.33;;;17.27;;
70026;SDS011;57506;50.092;15.804;2023-02-15T03:25:33;42.13;;;17.98;;
70026;SDS011;57506;50.092;15.804;2023-02-15T03:28:04;38.35;;;16.70;;
70026;SDS011;57506;50.092;15.804;2023-02-15T03:30:34;42.58;;;17.42;;
70026;SDS011;57506;50.092;15.804;2023-02-15T03:33:01;35.80;;;17.25;;
70026;SDS011;57506;50.092;15.804;2023-02-15T03:35:33;37.27;;;16.13;;
70026;SDS011;57506;50.092;15.804;2023-02-15T03:38:06;32.75;;;15.02;;
70026;SDS011;57506;50.092;15.804;2023-02-15T03:40:37;39.80;;;16.50;;
70026;SDS011;57506;50.092;15.804;2023-02-15T03:46:17;35.10;;;16.50;;
70026;SDS011;57506;50.092;15.804;2023-02-15T03:48:46;37.43;;;17.67;;
70026;SDS011;57506;50.092;15.804;2023-02-15T03:51:17;40.60;;;18.33;;
70026;SDS011;57506;50.092;15.804;2023-02-15T03:54:00;38.88;;;17.45;;
70026;SDS011;57506;50.092;15.804;2023-02-15T03:56:28;44.17;;;18.25;;
70026;SDS011;57506;50.092;15.804;2023-02-15T03:58:54;38.07;;;17.47;;
70026;SDS011;57506;50.092;15.804;2023-02-15T04:04:44;42.80;;;17.83;;
70026;SDS011;57506;50.092;15.804;2023-02-15T04:07:11;43.13;;;17.65;;
70026;SDS011;57506;50.092;15.804;2023-02-15T04:09:37;38.73;;;17.13;;
70026;SDS011;57506;50.092;15.804;2023-02-15T04:12:21;38.33;;;17.88;;
70026;SDS011;57506;50.092;15.804;2023-02-15T04:14:48;40.55;;;18.58;;
70026;SDS011;57506;50.092;15.804;2023-02-15T04:17:31;42.20;;;17.35;;
70026;SDS011;57506;50.092;15.804;2023-02-15T04:19:57;43.23;;;18.43;;
70026;SDS011;57506;50.092;15.804;2023-02-15T04:22:41;46.53;;;18.63;;
70026;SDS011;57506;50.092;15.804;2023-02-15T04:25:25;39.13;;;17.27;;
70026;SDS011;57506;50.092;15.804;2023-02-15T04:27:51;38.70;;;17.93;;
70026;SDS011;57506;50.092;15.804;2023-02-15T04:30:19;43.55;;;18.27;;
70026;SDS011;57506;50.092;15.804;2023-02-15T04:32:47;39.97;;;17.73;;
70026;SDS011;57506;50.092;15.804;2023-02-15T04:35:13;42.03;;;18.03;;
70026;SDS011;57506;50.092;15.804;2023-02-15T04:37:39;40.63;;;17.70;;
70026;SDS011;57506;50.092;15.804;2023-02-15T04:40:06;41.38;;;17.55;;
70026;SDS011;57506;50.092;15.804;2023-02-15T04:42:33;39.15;;;17.80;;
70026;SDS011;57506;50.092;15.804;2023-02-15T04:44:59;42.57;;;18.30;;
70026;SDS011;57506;50.092;15.804;2023-02-15T04:47:24;40.87;;;16.97;;
70026;SDS011;57506;50.092;15.804;2023-02-15T04:49:50;41.72;;;17.88;;
70026;SDS011;57506;50.092;15.804;2023-02-15T04:52:15;47.00;;;18.47;;
70026;SDS011;57506;50.092;15.804;2023-02-15T04:54:42;40.45;;;18.00;;
70026;SDS011;57506;50.092;15.804;2023-02-15T04:57:09;41.03;;;18.60;;
70026;SDS011;57506;50.092;15.804;2023-02-15T04:59:34;38.60;;;17.53;;
70026;SDS011;57506;50.092;15.804;2023-02-15T05:02:00;41.67;;;19.50;;
70026;SDS011;57506;50.092;15.804;2023-02-15T05:04:25;43.97;;;18.60;;
70026;SDS011;57506;50.092;15.804;2023-02-15T05:06:51;39.03;;;18.10;;
70026;SDS011;57506;50.092;15.804;2023-02-15T05:09:16;39.78;;;17.83;;
70026;SDS011;57506;50.092;15.804;2023-02-15T05:11:42;45.37;;;18.50;;
70026;SDS011;57506;50.092;15.804;2023-02-15T05:14:07;43.27;;;19.27;;
70026;SDS011;57506;50.092;15.804;2023-02-15T05:16:33;39.80;;;19.52;;
70026;SDS011;57506;50.092;15.804;2023-02-15T05:18:59;46.10;;;19.30;;
70026;SDS011;57506;50.092;15.804;2023-02-15T05:21:25;44.15;;;18.80;;
70026;SDS011;57506;50.092;15.804;2023-02-15T05:23:50;43.47;;;17.80;;
70026;SDS011;57506;50.092;15.804;2023-02-15T05:26:17;44.27;;;18.17;;
70026;SDS011;57506;50.092;15.804;2023-02-15T05:29:03;42.42;;;19.50;;
70026;SDS011;57506;50.092;15.804;2023-02-15T05:31:30;48.33;;;20.33;;
70026;SDS011;57506;50.092;15.804;2023-02-15T05:33:56;43.30;;;18.95;;
70026;SDS011;57506;50.092;15.804;2023-02-15T05:36:22;42.13;;;19.20;;
70026;SDS011;57506;50.092;15.804;2023-02-15T05:38:47;45.43;;;19.07;;
70026;SDS011;57506;50.092;15.804;2023-02-15T05:41:13;46.60;;;20.27;;
70026;SDS011;57506;50.092;15.804;2023-02-15T05:43:39;47.97;;;19.80;;
70026;SDS011;57506;50.092;15.804;2023-02-15T05:46:04;47.30;;;20.80;;
70026;SDS011;57506;50.092;15.804;2023-02-15T05:48:31;43.72;;;19.45;;
70026;SDS011;57506;50.092;15.804;2023-02-15T05:51:01;47.30;;;19.57;;
70026;SDS011;57506;50.092;15.804;2023-02-15T05:53:30;46.92;;;19.48;;
70026;SDS011;57506;50.092;15.804;2023-02-15T05:55:57;44.78;;;19.85;;
70026;SDS011;57506;50.092;15.804;2023-02-15T05:58:26;48.15;;;19.73;;
70026;SDS011;57506;50.092;15.804;2023-02-15T06:00:53;43.75;;;19.40;;
70026;SDS011;57506;50.092;15.804;2023-02-15T06:03:19;50.80;;;21.03;;
70026;SDS011;57506;50.092;15.804;2023-02-15T06:05:44;50.30;;;20.30;;
70026;SDS011;57506;50.092;15.804;2023-02-15T06:08:10;46.55;;;20.45;;
70026;SDS011;57506;50.092;15.804;2023-02-15T06:10:35;45.57;;;19.67;;
70026;SDS011;57506;50.092;15.804;2023-02-15T06:13:01;46.97;;;20.30;;
70026;SDS011;57506;50.092;15.804;2023-02-15T06:15:26;42.75;;;19.58;;
70026;SDS011;57506;50.092;15.804;2023-02-15T06:17:52;45.60;;;19.37;;
70026;SDS011;57506;50.092;15.804;2023-02-15T06:20:17;47.23;;;19.20;;
70026;SDS011;57506;50.092;15.804;2023-02-15T06:22:43;43.22;;;19.20;;
70026;SDS011;57506;50.092;15.804;2023-02-15T06:25:08;43.07;;;18.97;;
70026;SDS011;57506;50.092;15.804;2023-02-15T06:27:36;43.17;;;19.30;;
70026;SDS011;57506;50.092;15.804;2023-02-15T06:30:02;47.13;;;19.50;;
70026;SDS011;57506;50.092;15.804;2023-02-15T06:32:28;50.85;;;21.10;;
70026;SDS011;57506;50.092;15.804;2023-02-15T06:34:54;47.97;;;20.20;;
70026;SDS011;57506;50.092;15.804;2023-02-15T06:37:19;48.50;;;19.37;;
70026;SDS011;57506;50.092;15.804;2023-02-15T06:39:45;46.43;;;20.27;;
70026;SDS011;57506;50.092;15.804;2023-02-15T06:42:10;44.60;;;19.57;;
70026;SDS011;57506;50.092;15.804;2023-02-15T06:44:36;47.47;;;20.10;;
70026;SDS011;57506;50.092;15.804;2023-02-15T06:47:07;44.67;;;19.63;;
70026;SDS011;57506;50.092;15.804;2023-02-15T06:49:33;46.30;;;20.20;;
70026;SDS011;57506;50.092;15.804;2023-02-15T06:51:58;46.20;;;20.02;;
70026;SDS011;57506;50.092;15.804;2023-02-15T06:54:24;47.23;;;20.13;;
70026;SDS011;57506;50.092;15.804;2023-02-15T06:56:49;51.23;;;21.03;;
70026;SDS011;57506;50.092;15.804;2023-02-15T06:59:15;47.03;;;19.90;;
70026;SDS011;57506;50.092;15.804;2023-02-15T07:01:40;44.97;;;20.07;;
70026;SDS011;57506;50.092;15.804;2023-02-15T07:04:06;46.13;;;19.63;;
70026;SDS011;57506;50.092;15.804;2023-02-15T07:06:32;47.13;;;19.42;;
70026;SDS011;57506;50.092;15.804;2023-02-15T07:08:58;46.37;;;19.77;;
70026;SDS011;57506;50.092;15.804;2023-02-15T07:11:24;47.80;;;20.30;;
70026;SDS011;57506;50.092;15.804;2023-02-15T07:14:08;45.60;;;19.60;;
70026;SDS011;57506;50.092;15.804;2023-02-15T07:16:34;45.27;;;19.37;;
70026;SDS011;57506;50.092;15.804;2023-02-15T07:18:59;46.20;;;19.70;;
70026;SDS011;57506;50.092;15.804;2023-02-15T07:21:25;42.13;;;19.30;;
70026;SDS011;57506;50.092;15.804;2023-02-15T07:23:51;44.97;;;20.42;;
70026;SDS011;57506;50.092;15.804;2023-02-15T07:26:17;48.70;;;20.07;;
70026;SDS011;57506;50.092;15.804;2023-02-15T07:28:42;45.57;;;19.40;;
70026;SDS011;57506;50.092;15.804;2023-02-15T07:31:08;41.47;;;18.15;;
70026;SDS011;57506;50.092;15.804;2023-02-15T07:33:33;47.17;;;20.33;;
70026;SDS011;57506;50.092;15.804;2023-02-15T07:36:01;44.92;;;20.30;;
70026;SDS011;57506;50.092;15.804;2023-02-15T07:38:32;43.50;;;19.45;;
70026;SDS011;57506;50.092;15.804;2023-02-15T07:41:03;43.30;;;20.13;;
70026;SDS011;57506;50.092;15.804;2023-02-15T07:43:32;45.17;;;19.08;;
70026;SDS011;57506;50.092;15.804;2023-02-15T07:45:59;47.22;;;20.17;;
70026;SDS011;57506;50.092;15.804;2023-02-15T07:48:26;48.15;;;21.27;;
70026;SDS011;57506;50.092;15.804;2023-02-15T07:50:52;47.53;;;20.63;;
70026;SDS011;57506;50.092;15.804;2023-02-15T07:53:17;46.25;;;18.98;;
70026;SDS011;57506;50.092;15.804;2023-02-15T07:55:43;43.67;;;20.10;;
70026;SDS011;57506;50.092;15.804;2023-02-15T07:58:08;47.83;;;19.60;;
70026;SDS011;57506;50.092;15.804;2023-02-15T08:00:34;50.00;;;21.27;;
70026;SDS011;57506;50.092;15.804;2023-02-15T08:03:19;47.73;;;20.57;;
70026;SDS011;57506;50.092;15.804;2023-02-15T08:05:48;44.90;;;19.83;;
70026;SDS011;57506;50.092;15.804;2023-02-15T08:08:13;43.60;;;19.93;;
70026;SDS011;57506;50.092;15.804;2023-02-15T08:11:40;43.40;;;20.15;;
70026;SDS011;57506;50.092;15.804;2023-02-15T08:13:55;44.28;;;20.42;;
70026;SDS011;57506;50.092;15.804;2023-02-15T08:19:19;45.85;;;20.20;;
70026;SDS011;57506;50.092;15.804;2023-02-15T08:21:50;43.50;;;20.43;;
70026;SDS011;57506;50.092;15.804;2023-02-15T08:24:19;44.75;;;20.45;;
70026;SDS011;57506;50.092;15.804;2023-02-15T08:26:47;47.97;;;21.90;;
70026;SDS011;57506;50.092;15.804;2023-02-15T08:29:14;45.38;;;20.30;;
70026;SDS011;57506;50.092;15.804;2023-02-15T08:31:40;51.38;;;22.33;;
70026;SDS011;57506;50.092;15.804;2023-02-15T08:34:07;45.03;;;21.07;;
70026;SDS011;57506;50.092;15.804;2023-02-15T08:36:34;46.78;;;20.63;;
70026;SDS011;57506;50.092;15.804;2023-02-15T08:39:00;47.87;;;21.10;;
70026;SDS011;57506;50.092;15.804;2023-02-15T08:41:28;45.97;;;20.52;;
70026;SDS011;57506;50.092;15.804;2023-02-15T08:43:59;48.28;;;22.33;;
70026;SDS011;57506;50.092;15.804;2023-02-15T08:46:28;46.80;;;20.88;;
70026;SDS011;57506;50.092;15.804;2023-02-15T08:48:56;47.80;;;21.43;;
70026;SDS011;57506;50.092;15.804;2023-02-15T08:51:22;45.90;;;21.08;;
70026;SDS011;57506;50.092;15.804;2023-02-15T08:53:51;47.60;;;21.77;;
70026;SDS011;57506;50.092;15.804;2023-02-15T08:56:19;47.15;;;21.35;;
70026;SDS011;57506;50.092;15.804;2023-02-15T08:58:47;44.28;;;20.75;;
70026;SDS011;57506;50.092;15.804;2023-02-15T09:01:16;46.57;;;21.27;;
70026;SDS011;57506;50.092;15.804;2023-02-15T09:03:46;47.05;;;21.50;;
70026;SDS011;57506;50.092;15.804;2023-02-15T09:06:13;47.35;;;22.17;;
70026;SDS011;57506;50.092;15.804;2023-02-15T09:08:41;45.97;;;20.15;;
70026;SDS011;57506;50.092;15.804;2023-02-15T09:11:09;46.50;;;20.87;;
70026;SDS011;57506;50.092;15.804;2023-02-15T09:13:47;49.22;;;23.05;;
70026;SDS011;57506;50.092;15.804;2023-02-15T09:16:13;47.70;;;21.90;;
70026;SDS011;57506;50.092;15.804;2023-02-15T09:18:41;47.50;;;21.50;;
70026;SDS011;57506;50.092;15.804;2023-02-15T09:21:09;48.72;;;22.25;;
70026;SDS011;57506;50.092;15.804;2023-02-15T09:23:38;50.08;;;21.98;;
70026;SDS011;57506;50.092;15.804;2023-02-15T09:26:09;49.00;;;21.75;;
70026;SDS011;57506;50.092;15.804;2023-02-15T09:28:36;45.63;;;20.05;;
70026;SDS011;57506;50.092;15.804;2023-02-15T09:33:32;51.58;;;21.67;;
70026;SDS011;57506;50.092;15.804;2023-02-15T09:35:59;46.97;;;21.08;;
70026;SDS011;57506;50.092;15.804;2023-02-15T09:38:25;44.25;;;21.42;;
70026;SDS011;57506;50.092;15.804;2023-02-15T09:40:55;49.70;;;21.53;;
70026;SDS011;57506;50.092;15.804;2023-02-15T09:43:36;46.28;;;21.08;;
70026;SDS011;57506;50.092;15.804;2023-02-15T09:46:16;46.88;;;20.60;;
70026;SDS011;57506;50.092;15.804;2023-02-15T09:48:45;49.70;;;20.40;;
70026;SDS011;57506;50.092;15.804;2023-02-15T09:51:25;46.78;;;19.85;;
70026;SDS011;57506;50.092;15.804;2023-02-15T09:57:05;47.17;;;22.33;;
70026;SDS011;57506;50.092;15.804;2023-02-15T10:16:54;45.37;;;19.53;;
70026;SDS011;57506;50.092;15.804;2023-02-15T10:19:42;42.05;;;18.88;;
70026;SDS011;57506;50.092;15.804;2023-02-15T10:25:31;43.72;;;20.73;;
70026;SDS011;57506;50.092;15.804;2023-02-15T10:28:00;55.00;;;21.77;;
70026;SDS011;57506;50.092;15.804;2023-02-15T10:44:19;46.38;;;20.17;;
70026;SDS011;57506;50.092;15.804;2023-02-15T10:55:37;49.50;;;21.45;;
70026;SDS011;57506;50.092;15.804;2023-02-15T11:06:34;48.20;;;22.00;;
70026;SDS011;57506;50.092;15.804;2023-02-15T11:09:08;44.95;;;21.52;;
70026;SDS011;57506;50.092;15.804;2023-02-15T11:11:38;49.72;;;21.52;;
70026;SDS011;57506;50.092;15.804;2023-02-15T11:16:57;51.10;;;21.70;;
70026;SDS011;57506;50.092;15.804;2023-02-15T11:19:34;48.33;;;20.70;;
70026;SDS011;57506;50.092;15.804;2023-02-15T11:22:03;49.20;;;21.33;;
70026;SDS011;57506;50.092;15.804;2023-02-15T11:24:31;49.78;;;21.73;;
70026;SDS011;57506;50.092;15.804;2023-02-15T11:29:59;54.27;;;22.63;;
70026;SDS011;57506;50.092;15.804;2023-02-15T11:32:44;46.33;;;20.75;;
70026;SDS011;57506;50.092;15.804;2023-02-15T11:40:35;47.92;;;21.30;;
70026;SDS011;57506;50.092;15.804;2023-02-15T11:43:13;51.33;;;22.42;;
70026;SDS011;57506;50.092;15.804;2023-02-15T11:45:45;46.20;;;20.58;;
70026;SDS011;57506;50.092;15.804;2023-02-15T11:48:12;43.80;;;20.03;;
70026;SDS011;57506;50.092;15.804;2023-02-15T11:50:39;51.67;;;21.05;;
70026;SDS011;57506;50.092;15.804;2023-02-15T11:53:11;46.17;;;21.05;;
70026;SDS011;57506;50.092;15.804;2023-02-15T11:55:41;49.38;;;21.52;;
70026;SDS011;57506;50.092;15.804;2023-02-15T11:58:13;45.80;;;20.83;;
70026;SDS011;57506;50.092;15.804;2023-02-15T12:01:02;46.42;;;21.27;;
70026;SDS011;57506;50.092;15.804;2023-02-15T12:03:46;47.33;;;21.02;;
70026;SDS011;57506;50.092;15.804;2023-02-15T12:06:58;45.13;;;21.58;;
70026;SDS011;57506;50.092;15.804;2023-02-15T12:09:14;48.80;;;21.48;;
70026;SDS011;57506;50.092;15.804;2023-02-15T12:11:49;42.93;;;19.47;;
70026;SDS011;57506;50.092;15.804;2023-02-15T12:14:15;45.90;;;20.75;;
70026;SDS011;57506;50.092;15.804;2023-02-15T12:16:48;50.20;;;20.33;;
70026;SDS011;57506;50.092;15.804;2023-02-15T12:19:32;46.60;;;21.03;;
70026;SDS011;57506;50.092;15.804;2023-02-15T12:22:05;50.65;;;21.63;;
70026;SDS011;57506;50.092;15.804;2023-02-15T12:24:46;48.67;;;21.45;;
70026;SDS011;57506;50.092;15.804;2023-02-15T12:27:34;49.55;;;22.00;;
70026;SDS011;57506;50.092;15.804;2023-02-15T12:30:01;51.97;;;21.60;;
70026;SDS011;57506;50.092;15.804;2023-02-15T12:35:39;44.25;;;20.45;;
70026;SDS011;57506;50.092;15.804;2023-02-15T12:40:36;56.70;;;25.20;;
70026;SDS011;57506;50.092;15.804;2023-02-15T12:43:03;46.43;;;21.03;;
70026;SDS011;57506;50.092;15.804;2023-02-15T12:45:37;44.10;;;19.83;;
70026;SDS011;57506;50.092;15.804;2023-02-15T12:50:42;45.72;;;19.63;;
70026;SDS011;57506;50.092;15.804;2023-02-15T12:53:16;44.17;;;20.35;;
70026;SDS011;57506;50.092;15.804;2023-02-15T12:58:23;47.90;;;20.58;;
70026;SDS011;57506;50.092;15.804;2023-02-15T13:01:04;50.05;;;22.38;;
70026;SDS011;57506;50.092;15.804;2023-02-15T13:03:36;48.08;;;20.98;;
70026;SDS011;57506;50.092;15.804;2023-02-15T13:06:04;47.45;;;21.40;;
70026;SDS011;57506;50.092;15.804;2023-02-15T13:08:34;48.40;;;21.77;;
70026;SDS011;57506;50.092;15.804;2023-02-15T13:11:10;41.83;;;18.95;;
70026;SDS011;57506;50.092;15.804;2023-02-15T13:14:42;51.45;;;21.58;;
70026;SDS011;57506;50.092;15.804;2023-02-15T13:16:47;46.10;;;20.65;;
70026;SDS011;57506;50.092;15.804;2023-02-15T13:19:17;45.75;;;20.50;;
70026;SDS011;57506;50.092;15.804;2023-02-15T13:21:44;47.33;;;21.30;;
70026;SDS011;57506;50.092;15.804;2023-02-15T13:26:52;51.63;;;21.35;;
70026;SDS011;57506;50.092;15.804;2023-02-15T13:29:31;49.72;;;21.05;;
70026;SDS011;57506;50.092;15.804;2023-02-15T13:32:23;44.35;;;20.48;;
70026;SDS011;57506;50.092;15.804;2023-02-15T13:34:59;46.47;;;20.90;;
70026;SDS011;57506;50.092;15.804;2023-02-15T13:40:23;44.45;;;21.00;;
70026;SDS011;57506;50.092;15.804;2023-02-15T13:43:20;49.83;;;21.30;;
70026;SDS011;57506;50.092;15.804;2023-02-15T13:57:28;51.67;;;21.55;;
70026;SDS011;57506;50.092;15.804;2023-02-15T14:07:58;53.92;;;22.48;;
70026;SDS011;57506;50.092;15.804;2023-02-15T14:19:01;44.42;;;20.00;;
70026;SDS011;57506;50.092;15.804;2023-02-15T14:21:59;51.75;;;21.83;;
70026;SDS011;57506;50.092;15.804;2023-02-15T14:35:17;50.13;;;22.42;;
70026;SDS011;57506;50.092;15.804;2023-02-15T14:49:12;47.33;;;20.42;;
70026;SDS011;57506;50.092;15.804;2023-02-15T14:54:39;50.58;;;22.02;;
70026;SDS011;57506;50.092;15.804;2023-02-15T15:07:46;53.83;;;22.35;;
70026;SDS011;57506;50.092;15.804;2023-02-15T15:12:41;55.08;;;22.10;;
70026;SDS011;57506;50.092;15.804;2023-02-15T15:15:50;51.20;;;22.50;;
70026;SDS011;57506;50.092;15.804;2023-02-15T15:25:54;52.53;;;22.02;;
70026;SDS011;57506;50.092;15.804;2023-02-15T15:33:51;54.80;;;21.77;;
70026;SDS011;57506;50.092;15.804;2023-02-15T15:50:24;50.03;;;20.57;;
70026;SDS011;57506;50.092;15.804;2023-02-15T15:52:55;53.03;;;22.02;;
70026;SDS011;57506;50.092;15.804;2023-02-15T15:55:27;56.90;;;21.93;;
70026;SDS011;57506;50.092;15.804;2023-02-15T15:58:02;50.70;;;20.90;;
70026;SDS011;57506;50.092;15.804;2023-02-15T16:03:23;47.50;;;19.90;;
70026;SDS011;57506;50.092;15.804;2023-02-15T16:05:50;50.58;;;20.17;;
70026;SDS011;57506;50.092;15.804;2023-02-15T16:08:30;52.20;;;21.50;;
70026;SDS011;57506;50.092;15.804;2023-02-15T16:10:56;47.47;;;20.30;;
70026;SDS011;57506;50.092;15.804;2023-02-15T16:13:23;44.53;;;18.30;;
70026;SDS011;57506;50.092;15.804;2023-02-15T16:15:50;47.28;;;19.02;;
70026;SDS011;57506;50.092;15.804;2023-02-15T16:18:20;45.08;;;19.20;;
70026;SDS011;57506;50.092;15.804;2023-02-15T16:20:49;43.60;;;18.53;;
70026;SDS011;57506;50.092;15.804;2023-02-15T16:28:20;60.47;;;21.33;;
70026;SDS011;57506;50.092;15.804;2023-02-15T16:30:54;57.53;;;21.88;;
70026;SDS011;57506;50.092;15.804;2023-02-15T16:33:35;58.58;;;21.80;;
70026;SDS011;57506;50.092;15.804;2023-02-15T16:36:02;59.67;;;21.23;;
70026;SDS011;57506;50.092;15.804;2023-02-15T16:41:07;65.15;;;23.40;;
70026;SDS011;57506;50.092;15.804;2023-02-15T16:43:34;63.17;;;21.55;;
70026;SDS011;57506;50.092;15.804;2023-02-15T16:46:06;58.90;;;22.02;;
70026;SDS011;57506;50.092;15.804;2023-02-15T16:48:39;73.83;;;27.07;;
70026;SDS011;57506;50.092;15.804;2023-02-15T16:51:08;71.47;;;25.25;;
70026;SDS011;57506;50.092;15.804;2023-02-15T16:53:34;66.13;;;24.58;;
70026;SDS011;57506;50.092;15.804;2023-02-15T16:56:03;60.45;;;23.40;;
70026;SDS011;57506;50.092;15.804;2023-02-15T16:58:41;59.50;;;22.27;;
70026;SDS011;57506;50.092;15.804;2023-02-15T17:01:11;58.43;;;20.77;;
70026;SDS011;57506;50.092;15.804;2023-02-15T17:03:40;57.05;;;20.25;;
70026;SDS011;57506;50.092;15.804;2023-02-15T17:08:50;53.20;;;20.15;;
70026;SDS011;57506;50.092;15.804;2023-02-15T17:11:17;56.90;;;20.80;;
70026;SDS011;57506;50.092;15.804;2023-02-15T17:16:49;56.95;;;21.60;;
70026;SDS011;57506;50.092;15.804;2023-02-15T17:19:19;59.67;;;20.90;;
70026;SDS011;57506;50.092;15.804;2023-02-15T17:21:54;57.17;;;21.98;;
70026;SDS011;57506;50.092;15.804;2023-02-15T17:24:28;64.80;;;22.00;;
70026;SDS011;57506;50.092;15.804;2023-02-15T17:26:57;62.10;;;21.70;;
70026;SDS011;57506;50.092;15.804;2023-02-15T17:32:06;69.18;;;23.65;;
70026;SDS011;57506;50.092;15.804;2023-02-15T17:37:14;71.80;;;25.23;;
70026;SDS011;57506;50.092;15.804;2023-02-15T17:39:52;69.47;;;23.83;;
70026;SDS011;57506;50.092;15.804;2023-02-15T17:42:18;66.43;;;23.20;;
70026;SDS011;57506;50.092;15.804;2023-02-15T17:44:44;66.07;;;24.40;;
70026;SDS011;57506;50.092;15.804;2023-02-15T17:47:20;66.90;;;24.77;;
70026;SDS011;57506;50.092;15.804;2023-02-15T17:49:47;68.88;;;24.58;;
70026;SDS011;57506;50.092;15.804;2023-02-15T17:52:16;67.50;;;24.50;;
70026;SDS011;57506;50.092;15.804;2023-02-15T17:54:42;70.40;;;25.20;;
70026;SDS011;57506;50.092;15.804;2023-02-15T17:57:27;72.00;;;24.85;;
70026;SDS011;57506;50.092;15.804;2023-02-15T17:59:55;68.00;;;24.58;;
70026;SDS011;57506;50.092;15.804;2023-02-15T18:02:39;66.65;;;24.98;;
70026;SDS011;57506;50.092;15.804;2023-02-15T18:05:23;70.47;;;26.67;;
70026;SDS011;57506;50.092;15.804;2023-02-15T18:08:12;66.30;;;23.70;;
70026;SDS011;57506;50.092;15.804;2023-02-15T18:10:57;58.65;;;20.75;;
70026;SDS011;57506;50.092;15.804;2023-02-15T18:13:41;66.28;;;22.15;;
70026;SDS011;57506;50.092;15.804;2023-02-15T18:16:19;59.77;;;22.23;;
70026;SDS011;57506;50.092;15.804;2023-02-15T18:18:48;60.35;;;21.50;;
70026;SDS011;57506;50.092;15.804;2023-02-15T18:21:14;56.35;;;20.40;;
70026;SDS011;57506;50.092;15.804;2023-02-15T18:23:40;58.40;;;21.17;;